< < Back
Terminal Aerodrome Forecast


Current Version              Previous Versions:   1  2  3  4  5  6  7  8  9  

Terminal Aerodrome Forecast

061
FTUS44 KMOB 220500 AAA
TAFMOB
TAF AMD
KMOB 220523Z 2205/2224 08003KT P6SM OVC005
     FM220800 09004KT 3SM BR VCSH OVC004
     FM221800 15009KT P6SM VCSH OVC010=



Latest METAR

363
SAUS80 KWBC 221000 RRA
MTRMOB
METAR KMOB 220956Z AUTO 09007KT 5SM BR OVC002 12/12 A2988 RMK AO2 SLP118
T01220122 $


USA.gov is the U.S. government's official web portal to all federal, state and local government web resources and services.